sensor_id;sensor_type;location;lat;lon;timestamp;P1;P2;P0
55304;PMS7003;65692;51.378;19.824;2022-12-07T05:01:03;13.00;8.33;6.00
55304;PMS7003;65692;51.378;19.824;2022-12-07T05:03:30;9.33;9.33;7.67
55304;PMS7003;65692;51.378;19.824;2022-12-07T05:05:57;10.33;7.67;6.33
55304;PMS7003;65692;51.378;19.824;2022-12-07T05:08:23;14.67;12.00;9.00
55304;PMS7003;65692;51.378;19.824;2022-12-07T05:10:50;12.67;7.67;7.00
55304;PMS7003;65692;51.378;19.824;2022-12-07T05:13:16;9.00;9.00;7.00
55304;PMS7003;65692;51.378;19.824;2022-12-07T05:15:43;19.67;14.00;10.33
55304;PMS7003;65692;51.378;19.824;2022-12-07T05:18:10;11.00;9.00;7.00
55304;PMS7003;65692;51.378;19.824;2022-12-07T05:20:39;14.50;13.00;9.25
55304;PMS7003;65692;51.378;19.824;2022-12-07T05:23:08;18.00;12.33;9.00
55304;PMS7003;65692;51.378;19.824;2022-12-07T05:25:35;7.67;6.00;4.67
55304;PMS7003;65692;51.378;19.824;2022-12-07T05:28:01;10.67;7.67;6.00
55304;PMS7003;65692;51.378;19.824;2022-12-07T05:30:28;9.67;9.67;6.67
55304;PMS7003;65692;51.378;19.824;2022-12-07T05:32:55;11.33;5.33;3.67
55304;PMS7003;65692;51.378;19.824;2022-12-07T05:35:22;10.33;9.00;6.00
55304;PMS7003;65692;51.378;19.824;2022-12-07T05:37:49;12.00;7.00;6.00
55304;PMS7003;65692;51.378;19.824;2022-12-07T05:40:15;13.00;9.00;7.00
55304;PMS7003;65692;51.378;19.824;2022-12-07T05:42:42;9.33;5.33;4.00
55304;PMS7003;65692;51.378;19.824;2022-12-07T05:45:09;6.00;6.00;5.33
55304;PMS7003;65692;51.378;19.824;2022-12-07T05:47:36;10.33;9.00;7.00
55304;PMS7003;65692;51.378;19.824;2022-12-07T05:50:04;4.67;4.67;3.67
55304;PMS7003;65692;51.378;19.824;2022-12-07T05:52:32;9.33;7.67;6.33
55304;PMS7003;65692;51.378;19.824;2022-12-07T05:54:58;10.67;6.67;6.00
55304;PMS7003;65692;51.378;19.824;2022-12-07T05:57:25;9.67;7.00;6.00
55304;PMS7003;65692;51.378;19.824;2022-12-07T05:59:51;7.00;6.00;4.67
55304;PMS7003;65692;51.378;19.824;2022-12-07T06:02:18;8.33;7.00;6.00
55304;PMS7003;65692;51.378;19.824;2022-12-07T06:04:45;1.00;1.00;1.00
55304;PMS7003;65692;51.378;19.824;2022-12-07T06:07:13;7.00;6.67;5.33
55304;PMS7003;65692;51.378;19.824;2022-12-07T06:09:40;8.33;6.00;5.33
55304;PMS7003;65692;51.378;19.824;2022-12-07T06:12:08;8.00;6.00;3.33
55304;PMS7003;65692;51.378;19.824;2022-12-07T06:14:54;5.33;4.00;3.00
55304;PMS7003;65692;51.378;19.824;2022-12-07T06:17:26;7.67;6.33;6.00
55304;PMS7003;65692;51.378;19.824;2022-12-07T06:23:18;11.33;7.00;4.00
55304;PMS7003;65692;51.378;19.824;2022-12-07T06:36:47;7.67;5.33;4.67
55304;PMS7003;65692;51.378;19.824;2022-12-07T06:50:06;11.33;9.33;8.33
55304;PMS7003;65692;51.378;19.824;2022-12-07T06:52:34;9.33;7.67;6.33
55304;PMS7003;65692;51.378;19.824;2022-12-07T06:55:00;14.00;10.00;7.00
55304;PMS7003;65692;51.378;19.824;2022-12-07T06:57:27;15.67;10.00;7.00
55304;PMS7003;65692;51.378;19.824;2022-12-07T06:59:53;11.33;10.00;6.67
55304;PMS7003;65692;51.378;19.824;2022-12-07T07:02:20;14.67;10.00;8.33
55304;PMS7003;65692;51.378;19.824;2022-12-07T07:04:47;14.33;10.67;9.00
55304;PMS7003;65692;51.378;19.824;2022-12-07T07:07:13;12.67;9.00;6.33
55304;PMS7003;65692;51.378;19.824;2022-12-07T07:09:40;13.33;10.00;7.00
55304;PMS7003;65692;51.378;19.824;2022-12-07T07:12:07;10.00;10.00;7.00
55304;PMS7003;65692;51.378;19.824;2022-12-07T07:14:34;10.67;7.00;7.00
55304;PMS7003;65692;51.378;19.824;2022-12-07T07:17:00;9.33;9.33;7.00
55304;PMS7003;65692;51.378;19.824;2022-12-07T07:19:27;14.33;9.00;7.00
55304;PMS7003;65692;51.378;19.824;2022-12-07T07:21:53;11.33;10.00;7.00
55304;PMS7003;65692;51.378;19.824;2022-12-07T07:24:20;10.00;10.00;9.00
55304;PMS7003;65692;51.378;19.824;2022-12-07T07:26:47;10.67;6.00;4.00
55304;PMS7003;65692;51.378;19.824;2022-12-07T07:29:13;15.00;9.00;7.00
55304;PMS7003;65692;51.378;19.824;2022-12-07T07:31:40;9.00;6.33;4.00
55304;PMS7003;65692;51.378;19.824;2022-12-07T07:34:06;10.67;7.00;6.00
55304;PMS7003;65692;51.378;19.824;2022-12-07T07:36:34;7.00;6.00;4.33
55304;PMS7003;65692;51.378;19.824;2022-12-07T07:39:02;9.00;7.00;6.33
55304;PMS7003;65692;51.378;19.824;2022-12-07T07:41:29;9.00;9.00;7.00
55304;PMS7003;65692;51.378;19.824;2022-12-07T07:43:55;7.00;7.00;6.00
55304;PMS7003;65692;51.378;19.824;2022-12-07T07:46:22;10.00;6.00;5.00
55304;PMS7003;65692;51.378;19.824;2022-12-07T07:48:49;9.67;4.00;3.00
55304;PMS7003;65692;51.378;19.824;2022-12-07T07:51:16;9.00;8.33;6.00
55304;PMS7003;65692;51.378;19.824;2022-12-07T07:53:43;10.00;5.33;3.00
55304;PMS7003;65692;51.378;19.824;2022-12-07T07:56:09;12.00;7.00;7.00
55304;PMS7003;65692;51.378;19.824;2022-12-07T07:58:36;12.67;7.00;6.00
55304;PMS7003;65692;51.378;19.824;2022-12-07T08:01:03;10.33;6.33;6.00
55304;PMS7003;65692;51.378;19.824;2022-12-07T08:03:30;9.00;7.00;6.00
55304;PMS7003;65692;51.378;19.824;2022-12-07T08:05:57;4.00;3.00;1.00
55304;PMS7003;65692;51.378;19.824;2022-12-07T08:08:24;8.33;6.67;5.33
55304;PMS7003;65692;51.378;19.824;2022-12-07T08:10:50;9.00;7.00;6.33
55304;PMS7003;65692;51.378;19.824;2022-12-07T08:13:17;7.67;7.67;6.00
55304;PMS7003;65692;51.378;19.824;2022-12-07T08:15:45;7.33;7.33;6.00
55304;PMS7003;65692;51.378;19.824;2022-12-07T08:18:12;9.00;7.00;6.00
55304;PMS7003;65692;51.378;19.824;2022-12-07T08:20:39;10.00;8.00;7.00
55304;PMS7003;65692;51.378;19.824;2022-12-07T08:23:06;8.67;7.00;6.67
55304;PMS7003;65692;51.378;19.824;2022-12-07T08:25:33;7.67;7.00;6.67
55304;PMS7003;65692;51.378;19.824;2022-12-07T08:28:00;8.33;4.00;3.67
55304;PMS7003;65692;51.378;19.824;2022-12-07T08:30:27;8.33;6.67;6.00
55304;PMS7003;65692;51.378;19.824;2022-12-07T08:32:54;9.00;8.33;6.00
55304;PMS7003;65692;51.378;19.824;2022-12-07T08:35:22;9.00;7.00;6.00
55304;PMS7003;65692;51.378;19.824;2022-12-07T08:37:50;15.33;10.00;8.00
55304;PMS7003;65692;51.378;19.824;2022-12-07T08:40:16;10.67;9.00;6.67
55304;PMS7003;65692;51.378;19.824;2022-12-07T08:42:48;8.00;6.67;6.00
55304;PMS7003;65692;51.378;19.824;2022-12-07T08:45:16;12.67;10.00;7.00
55304;PMS7003;65692;51.378;19.824;2022-12-07T08:47:53;15.00;9.33;5.67
55304;PMS7003;65692;51.378;19.824;2022-12-07T08:50:21;12.67;10.00;7.33
55304;PMS7003;65692;51.378;19.824;2022-12-07T08:52:49;9.33;7.00;6.00
55304;PMS7003;65692;51.378;19.824;2022-12-07T08:55:17;16.00;12.00;9.33
55304;PMS7003;65692;51.378;19.824;2022-12-07T08:57:44;13.33;10.00;8.00
55304;PMS7003;65692;51.378;19.824;2022-12-07T09:00:11;15.67;12.00;9.33
55304;PMS7003;65692;51.378;19.824;2022-12-07T09:02:39;12.00;9.00;7.00
55304;PMS7003;65692;51.378;19.824;2022-12-07T09:05:08;10.67;9.00;7.00
55304;PMS7003;65692;51.378;19.824;2022-12-07T09:07:43;6.00;6.00;4.33
55304;PMS7003;65692;51.378;19.824;2022-12-07T09:10:11;11.33;8.33;5.33
55304;PMS7003;65692;51.378;19.824;2022-12-07T09:12:40;3.00;1.00;0.00
55304;PMS7003;65692;51.378;19.824;2022-12-07T09:15:07;8.67;1.67;1.00
55304;PMS7003;65692;51.378;19.824;2022-12-07T09:17:34;9.00;5.33;5.33
55304;PMS7003;65692;51.378;19.824;2022-12-07T09:20:02;9.00;7.67;6.33
55304;PMS7003;65692;51.378;19.824;2022-12-07T09:22:30;14.33;8.33;7.00
55304;PMS7003;65692;51.378;19.824;2022-12-07T09:25:00;7.00;7.00;6.67
55304;PMS7003;65692;51.378;19.824;2022-12-07T09:27:27;12.33;7.00;6.00
55304;PMS7003;65692;51.378;19.824;2022-12-07T09:29:54;8.67;5.67;5.67
55304;PMS7003;65692;51.378;19.824;2022-12-07T09:32:20;7.67;7.00;6.00
55304;PMS7003;65692;51.378;19.824;2022-12-07T09:34:47;9.33;7.00;5.67
55304;PMS7003;65692;51.378;19.824;2022-12-07T09:37:13;8.00;7.00;6.25
55304;PMS7003;65692;51.378;19.824;2022-12-07T09:39:41;12.00;8.33;6.33
55304;PMS7003;65692;51.378;19.824;2022-12-07T09:44:50;9.33;6.00;4.00
55304;PMS7003;65692;51.378;19.824;2022-12-07T09:47:17;4.00;4.00;4.00
55304;PMS7003;65692;51.378;19.824;2022-12-07T09:49:43;28.75;24.25;15.75
55304;PMS7003;65692;51.378;19.824;2022-12-07T09:52:18;12.00;8.33;7.00
55304;PMS7003;65692;51.378;19.824;2022-12-07T09:54:46;8.33;6.00;3.33
55304;PMS7003;65692;51.378;19.824;2022-12-07T09:57:13;5.00;5.00;4.00
55304;PMS7003;65692;51.378;19.824;2022-12-07T09:59:40;24.33;15.67;11.33
55304;PMS7003;65692;51.378;19.824;2022-12-07T10:02:28;8.50;6.25;5.50
55304;PMS7003;65692;51.378;19.824;2022-12-07T10:04:58;1.00;1.00;1.00
55304;PMS7003;65692;51.378;19.824;2022-12-07T10:07:26;5.33;4.00;3.33
55304;PMS7003;65692;51.378;19.824;2022-12-07T10:09:53;2.50;0.75;0.25
55304;PMS7003;65692;51.378;19.824;2022-12-07T10:12:19;9.00;6.00;4.00
55304;PMS7003;65692;51.378;19.824;2022-12-07T10:14:57;6.00;4.67;3.67
55304;PMS7003;65692;51.378;19.824;2022-12-07T10:17:35;7.00;6.50;5.00
55304;PMS7003;65692;51.378;19.824;2022-12-07T10:20:35;5.75;4.00;4.00
55304;PMS7003;65692;51.378;19.824;2022-12-07T10:22:56;9.33;6.00;6.00
55304;PMS7003;65692;51.378;19.824;2022-12-07T10:25:25;11.33;8.67;6.67
55304;PMS7003;65692;51.378;19.824;2022-12-07T10:27:59;6.67;6.67;4.33
55304;PMS7003;65692;51.378;19.824;2022-12-07T10:30:26;9.33;7.00;6.00
55304;PMS7003;65692;51.378;19.824;2022-12-07T10:32:53;6.25;6.00;4.00
55304;PMS7003;65692;51.378;19.824;2022-12-07T10:35:29;10.67;7.33;6.00
55304;PMS7003;65692;51.378;19.824;2022-12-07T10:37:58;9.00;6.33;4.67
55304;PMS7003;65692;51.378;19.824;2022-12-07T10:40:27;9.25;7.00;6.25
55304;PMS7003;65692;51.378;19.824;2022-12-07T10:51:12;13.33;10.00;8.33
55304;PMS7003;65692;51.378;19.824;2022-12-07T10:58:55;9.00;7.00;6.00
55304;PMS7003;65692;51.378;19.824;2022-12-07T11:01:39;13.00;7.33;5.33
55304;PMS7003;65692;51.378;19.824;2022-12-07T11:04:18;21.67;11.00;8.33
55304;PMS7003;65692;51.378;19.824;2022-12-07T11:20:15;19.00;14.00;10.00
55304;PMS7003;65692;51.378;19.824;2022-12-07T11:23:37;22.67;18.00;10.00
55304;PMS7003;65692;51.378;19.824;2022-12-07T11:33:33;19.75;18.00;13.75
55304;PMS7003;65692;51.378;19.824;2022-12-07T11:36:10;25.00;18.00;13.00
55304;PMS7003;65692;51.378;19.824;2022-12-07T11:38:42;26.50;21.50;15.00
55304;PMS7003;65692;51.378;19.824;2022-12-07T11:41:19;17.67;15.33;10.00
55304;PMS7003;65692;51.378;19.824;2022-12-07T11:46:38;17.00;16.00;15.00
55304;PMS7003;65692;51.378;19.824;2022-12-07T11:51:43;24.00;15.33;11.00
55304;PMS7003;65692;51.378;19.824;2022-12-07T11:54:23;18.67;16.67;12.33
55304;PMS7003;65692;51.378;19.824;2022-12-07T11:56:51;21.33;19.00;14.00
55304;PMS7003;65692;51.378;19.824;2022-12-07T11:59:32;24.67;18.67;13.00
55304;PMS7003;65692;51.378;19.824;2022-12-07T12:02:11;25.33;16.67;12.00
55304;PMS7003;65692;51.378;19.824;2022-12-07T12:04:58;23.33;15.33;12.67
55304;PMS7003;65692;51.378;19.824;2022-12-07T12:07:26;19.00;18.00;13.00
55304;PMS7003;65692;51.378;19.824;2022-12-07T12:10:21;23.75;19.25;16.00
55304;PMS7003;65692;51.378;19.824;2022-12-07T12:15:57;20.75;17.00;13.50
55304;PMS7003;65692;51.378;19.824;2022-12-07T12:21:14;26.33;19.67;15.00
55304;PMS7003;65692;51.378;19.824;2022-12-07T12:23:48;23.25;17.25;13.00
55304;PMS7003;65692;51.378;19.824;2022-12-07T12:26:18;21.25;17.25;13.75
55304;PMS7003;65692;51.378;19.824;2022-12-07T12:33:52;8.67;7.00;5.67
55304;PMS7003;65692;51.378;19.824;2022-12-07T12:36:23;9.00;8.33;6.67
55304;PMS7003;65692;51.378;19.824;2022-12-07T12:47:03;18.67;14.33;9.67
55304;PMS7003;65692;51.378;19.824;2022-12-07T12:49:40;50.50;37.75;24.75
55304;PMS7003;65692;51.378;19.824;2022-12-07T12:54:40;14.33;7.00;5.33
55304;PMS7003;65692;51.378;19.824;2022-12-07T12:57:34;12.00;9.67;6.00
55304;PMS7003;65692;51.378;19.824;2022-12-07T13:00:18;10.00;8.67;7.00
55304;PMS7003;65692;51.378;19.824;2022-12-07T13:02:50;13.00;11.67;10.00
55304;PMS7003;65692;51.378;19.824;2022-12-07T13:05:23;17.00;11.67;8.67
55304;PMS7003;65692;51.378;19.824;2022-12-07T13:10:21;16.00;13.67;10.67
55304;PMS7003;65692;51.378;19.824;2022-12-07T13:13:02;15.33;10.00;7.00
55304;PMS7003;65692;51.378;19.824;2022-12-07T13:18:04;13.33;13.33;11.00
55304;PMS7003;65692;51.378;19.824;2022-12-07T13:26:18;17.67;15.33;11.67
55304;PMS7003;65692;51.378;19.824;2022-12-07T13:28:49;24.25;21.25;16.00
55304;PMS7003;65692;51.378;19.824;2022-12-07T13:33:44;20.25;15.50;10.00
55304;PMS7003;65692;51.378;19.824;2022-12-07T13:36:14;24.75;16.75;13.00
55304;PMS7003;65692;51.378;19.824;2022-12-07T13:38:56;27.75;17.75;13.75
55304;PMS7003;65692;51.378;19.824;2022-12-07T13:41:24;18.75;15.75;13.00
55304;PMS7003;65692;51.378;19.824;2022-12-07T13:46:26;20.25;19.50;15.00
55304;PMS7003;65692;51.378;19.824;2022-12-07T13:49:00;33.25;24.00;18.25
55304;PMS7003;65692;51.378;19.824;2022-12-07T13:51:28;26.25;21.50;16.00
55304;PMS7003;65692;51.378;19.824;2022-12-07T13:53:59;32.50;24.50;17.50
55304;PMS7003;65692;51.378;19.824;2022-12-07T13:56:27;30.50;21.00;16.00
55304;PMS7003;65692;51.378;19.824;2022-12-07T13:58:57;29.00;22.25;18.00
55304;PMS7003;65692;51.378;19.824;2022-12-07T14:01:24;34.25;27.00;16.25
55304;PMS7003;65692;51.378;19.824;2022-12-07T14:03:51;50.00;40.00;25.75
55304;PMS7003;65692;51.378;19.824;2022-12-07T14:08:45;32.75;24.75;17.75
55304;PMS7003;65692;51.378;19.824;2022-12-07T14:11:13;23.25;14.75;12.25
55304;PMS7003;65692;51.378;19.824;2022-12-07T14:16:22;23.50;21.00;13.00
55304;PMS7003;65692;51.378;19.824;2022-12-07T14:18:50;33.75;26.25;20.25
55304;PMS7003;65692;51.378;19.824;2022-12-07T14:21:18;30.00;25.75;20.00
55304;PMS7003;65692;51.378;19.824;2022-12-07T14:26:34;46.00;44.00;27.75
55304;PMS7003;65692;51.378;19.824;2022-12-07T14:31:48;38.25;28.50;21.25
55304;PMS7003;65692;51.378;19.824;2022-12-07T14:34:15;30.75;22.00;15.75
55304;PMS7003;65692;51.378;19.824;2022-12-07T14:36:42;28.25;20.25;15.00
55304;PMS7003;65692;51.378;19.824;2022-12-07T14:39:09;26.50;19.50;14.25
55304;PMS7003;65692;51.378;19.824;2022-12-07T14:41:39;26.50;19.50;16.00
55304;PMS7003;65692;51.378;19.824;2022-12-07T14:44:19;27.00;22.00;17.33
55304;PMS7003;65692;51.378;19.824;2022-12-07T14:46:51;27.33;19.00;15.33
55304;PMS7003;65692;51.378;19.824;2022-12-07T14:49:37;23.00;23.00;19.00
55304;PMS7003;65692;51.378;19.824;2022-12-07T14:52:04;31.25;25.50;17.50
55304;PMS7003;65692;51.378;19.824;2022-12-07T14:54:54;27.25;20.75;16.25
55304;PMS7003;65692;51.378;19.824;2022-12-07T14:57:21;15.00;9.67;7.67
55304;PMS7003;65692;51.378;19.824;2022-12-07T14:59:48;23.33;19.00;15.00
55304;PMS7003;65692;51.378;19.824;2022-12-07T15:02:15;19.75;18.75;15.25
55304;PMS7003;65692;51.378;19.824;2022-12-07T15:04:41;21.50;18.00;14.25
55304;PMS7003;65692;51.378;19.824;2022-12-07T15:07:12;18.00;14.00;11.33
55304;PMS7003;65692;51.378;19.824;2022-12-07T15:09:42;12.67;10.00;7.67
55304;PMS7003;65692;51.378;19.824;2022-12-07T15:12:09;17.00;15.00;12.50
55304;PMS7003;65692;51.378;19.824;2022-12-07T15:14:37;19.75;14.00;12.00
55304;PMS7003;65692;51.378;19.824;2022-12-07T15:17:11;15.33;10.00;7.00
55304;PMS7003;65692;51.378;19.824;2022-12-07T15:19:53;13.33;9.00;7.67
55304;PMS7003;65692;51.378;19.824;2022-12-07T15:22:21;20.00;13.50;10.50
55304;PMS7003;65692;51.378;19.824;2022-12-07T15:25:05;15.00;10.00;9.00
55304;PMS7003;65692;51.378;19.824;2022-12-07T15:27:33;24.33;12.33;9.33
55304;PMS7003;65692;51.378;19.824;2022-12-07T15:29:59;15.25;10.50;7.00
55304;PMS7003;65692;51.378;19.824;2022-12-07T15:32:26;16.25;13.00;10.00
55304;PMS7003;65692;51.378;19.824;2022-12-07T15:34:53;10.00;7.67;6.67
55304;PMS7003;65692;51.378;19.824;2022-12-07T15:37:21;13.33;12.67;9.00
55304;PMS7003;65692;51.378;19.824;2022-12-07T15:39:49;14.67;12.00;9.00
55304;PMS7003;65692;51.378;19.824;2022-12-07T15:42:16;16.00;13.00;10.00
55304;PMS7003;65692;51.378;19.824;2022-12-07T15:44:43;12.00;9.33;8.67
55304;PMS7003;65692;51.378;19.824;2022-12-07T15:47:29;19.25;13.00;11.00
55304;PMS7003;65692;51.378;19.824;2022-12-07T15:49:59;14.33;10.00;9.00
55304;PMS7003;65692;51.378;19.824;2022-12-07T15:52:25;12.67;9.67;9.00
55304;PMS7003;65692;51.378;19.824;2022-12-07T15:54:53;9.50;9.50;8.00
55304;PMS7003;65692;51.378;19.824;2022-12-07T15:57:20;12.33;8.33;7.67
55304;PMS7003;65692;51.378;19.824;2022-12-07T15:59:50;9.33;9.33;7.67
55304;PMS7003;65692;51.378;19.824;2022-12-07T16:02:17;14.33;11.67;9.00
55304;PMS7003;65692;51.378;19.824;2022-12-07T16:04:45;15.75;14.00;10.50
55304;PMS7003;65692;51.378;19.824;2022-12-07T16:07:13;12.67;10.67;9.00
55304;PMS7003;65692;51.378;19.824;2022-12-07T16:09:42;11.33;9.33;7.00
55304;PMS7003;65692;51.378;19.824;2022-12-07T16:12:09;12.00;12.00;9.00
55304;PMS7003;65692;51.378;19.824;2022-12-07T16:14:36;13.00;11.33;9.67
55304;PMS7003;65692;51.378;19.824;2022-12-07T16:17:03;12.33;12.33;10.00
55304;PMS7003;65692;51.378;19.824;2022-12-07T16:19:31;13.50;12.25;9.75
55304;PMS7003;65692;51.378;19.824;2022-12-07T16:21:58;13.67;10.67;9.00
55304;PMS7003;65692;51.378;19.824;2022-12-07T16:24:25;7.25;7.25;4.00
55304;PMS7003;65692;51.378;19.824;2022-12-07T16:26:52;13.00;13.00;10.00
55304;PMS7003;65692;51.378;19.824;2022-12-07T16:29:20;11.67;10.67;9.00
55304;PMS7003;65692;51.378;19.824;2022-12-07T16:31:47;12.00;9.67;8.33
55304;PMS7003;65692;51.378;19.824;2022-12-07T16:34:14;24.25;16.00;12.25
55304;PMS7003;65692;51.378;19.824;2022-12-07T16:36:41;18.33;13.33;10.33
55304;PMS7003;65692;51.378;19.824;2022-12-07T16:39:28;19.50;15.50;10.00
55304;PMS7003;65692;51.378;19.824;2022-12-07T16:41:54;19.25;12.75;10.00
55304;PMS7003;65692;51.378;19.824;2022-12-07T16:44:21;19.00;18.50;12.50
55304;PMS7003;65692;51.378;19.824;2022-12-07T16:46:48;13.67;12.33;10.67
55304;PMS7003;65692;51.378;19.824;2022-12-07T16:49:17;17.00;15.25;11.75
55304;PMS7003;65692;51.378;19.824;2022-12-07T16:51:44;18.00;15.00;11.33
55304;PMS7003;65692;51.378;19.824;2022-12-07T16:54:12;19.25;18.25;14.00
55304;PMS7003;65692;51.378;19.824;2022-12-07T16:56:40;23.00;18.25;13.50
55304;PMS7003;65692;51.378;19.824;2022-12-07T16:59:08;20.75;18.75;13.00
55304;PMS7003;65692;51.378;19.824;2022-12-07T17:01:35;21.00;18.00;13.00
55304;PMS7003;65692;51.378;19.824;2022-12-07T17:04:02;20.00;16.00;12.75
55304;PMS7003;65692;51.378;19.824;2022-12-07T17:06:38;23.75;17.00;13.00
55304;PMS7003;65692;51.378;19.824;2022-12-07T17:09:05;24.25;19.25;13.00
55304;PMS7003;65692;51.378;19.824;2022-12-07T17:11:35;18.50;13.25;10.00
55304;PMS7003;65692;51.378;19.824;2022-12-07T17:14:02;19.00;12.00;8.75
55304;PMS7003;65692;51.378;19.824;2022-12-07T17:16:47;20.50;15.25;13.00
55304;PMS7003;65692;51.378;19.824;2022-12-07T17:19:15;21.50;18.00;15.25
55304;PMS7003;65692;51.378;19.824;2022-12-07T17:21:41;21.25;10.00;8.00
55304;PMS7003;65692;51.378;19.824;2022-12-07T17:24:09;15.25;15.25;12.00
55304;PMS7003;65692;51.378;19.824;2022-12-07T17:26:36;22.50;16.75;12.25
55304;PMS7003;65692;51.378;19.824;2022-12-07T17:29:03;12.00;12.00;10.00
55304;PMS7003;65692;51.378;19.824;2022-12-07T17:31:30;21.50;18.00;14.00
55304;PMS7003;65692;51.378;19.824;2022-12-07T17:33:58;17.75;14.50;12.00
55304;PMS7003;65692;51.378;19.824;2022-12-07T17:36:26;21.50;18.00;12.25
55304;PMS7003;65692;51.378;19.824;2022-12-07T17:38:53;20.00;18.00;14.00
55304;PMS7003;65692;51.378;19.824;2022-12-07T17:41:20;18.00;14.50;11.00
55304;PMS7003;65692;51.378;19.824;2022-12-07T17:44:06;19.25;15.50;12.50
55304;PMS7003;65692;51.378;19.824;2022-12-07T17:46:33;29.50;16.50;12.50
55304;PMS7003;65692;51.378;19.824;2022-12-07T17:49:00;12.67;10.00;9.00
55304;PMS7003;65692;51.378;19.824;2022-12-07T17:51:27;19.00;11.33;9.00
55304;PMS7003;65692;51.378;19.824;2022-12-07T17:54:12;15.50;14.00;9.50
55304;PMS7003;65692;51.378;19.824;2022-12-07T17:56:38;13.75;11.50;9.00
55304;PMS7003;65692;51.378;19.824;2022-12-07T17:59:06;15.75;10.00;7.50
55304;PMS7003;65692;51.378;19.824;2022-12-07T18:01:32;19.00;14.00;10.50
55304;PMS7003;65692;51.378;19.824;2022-12-07T18:04:00;20.33;12.00;9.00
55304;PMS7003;65692;51.378;19.824;2022-12-07T18:06:26;16.50;12.25;10.00
55304;PMS7003;65692;51.378;19.824;2022-12-07T18:08:53;17.50;14.00;11.00
55304;PMS7003;65692;51.378;19.824;2022-12-07T18:11:20;23.00;15.67;12.67
55304;PMS7003;65692;51.378;19.824;2022-12-07T18:13:46;14.00;12.50;9.00
55304;PMS7003;65692;51.378;19.824;2022-12-07T18:16:14;13.00;9.00;8.50
55304;PMS7003;65692;51.378;19.824;2022-12-07T18:18:43;13.50;13.50;12.00
55304;PMS7003;65692;51.378;19.824;2022-12-07T18:21:18;16.67;12.00;10.00
55304;PMS7003;65692;51.378;19.824;2022-12-07T18:23:46;13.50;11.50;9.50
55304;PMS7003;65692;51.378;19.824;2022-12-07T18:26:13;16.75;15.50;13.00
55304;PMS7003;65692;51.378;19.824;2022-12-07T18:28:40;19.50;15.00;10.00
55304;PMS7003;65692;51.378;19.824;2022-12-07T18:31:07;18.67;12.67;8.33
55304;PMS7003;65692;51.378;19.824;2022-12-07T18:33:42;16.25;13.50;12.00
55304;PMS7003;65692;51.378;19.824;2022-12-07T18:36:09;16.75;10.00;9.00
55304;PMS7003;65692;51.378;19.824;2022-12-07T18:38:36;25.00;16.00;11.25
55304;PMS7003;65692;51.378;19.824;2022-12-07T18:41:02;30.50;25.00;17.50
55304;PMS7003;65692;51.378;19.824;2022-12-07T18:43:29;29.00;25.25;17.50
55304;PMS7003;65692;51.378;19.824;2022-12-07T18:45:55;31.00;25.00;18.00
55304;PMS7003;65692;51.378;19.824;2022-12-07T18:48:22;24.00;21.50;15.00
55304;PMS7003;65692;51.378;19.824;2022-12-07T18:50:59;23.33;13.67;10.00
55304;PMS7003;65692;51.378;19.824;2022-12-07T18:53:26;14.75;14.75;9.50
55304;PMS7003;65692;51.378;19.824;2022-12-07T18:58:38;22.75;16.50;12.50
55304;PMS7003;65692;51.378;19.824;2022-12-07T19:01:25;17.75;6.00;3.75
55304;PMS7003;65692;51.378;19.824;2022-12-07T19:03:52;20.25;18.00;15.00
55304;PMS7003;65692;51.378;19.824;2022-12-07T19:06:19;15.00;12.50;9.50
55304;PMS7003;65692;51.378;19.824;2022-12-07T19:08:45;16.00;15.50;11.75
55304;PMS7003;65692;51.378;19.824;2022-12-07T19:11:18;11.50;9.25;7.00
55304;PMS7003;65692;51.378;19.824;2022-12-07T19:14:03;18.75;17.00;12.00
55304;PMS7003;65692;51.378;19.824;2022-12-07T19:16:30;13.67;12.00;7.00
55304;PMS7003;65692;51.378;19.824;2022-12-07T19:18:56;14.50;11.50;8.50
55304;PMS7003;65692;51.378;19.824;2022-12-07T19:21:23;15.00;12.67;10.67
55304;PMS7003;65692;51.378;19.824;2022-12-07T19:23:50;12.75;12.75;10.00
55304;PMS7003;65692;51.378;19.824;2022-12-07T19:26:16;21.25;15.50;12.50
55304;PMS7003;65692;51.378;19.824;2022-12-07T19:28:43;14.00;12.00;9.25
55304;PMS7003;65692;51.378;19.824;2022-12-07T19:31:10;15.00;12.00;9.25
55304;PMS7003;65692;51.378;19.824;2022-12-07T19:33:37;13.00;12.00;9.00
55304;PMS7003;65692;51.378;19.824;2022-12-07T19:36:04;24.50;13.00;10.50
55304;PMS7003;65692;51.378;19.824;2022-12-07T19:38:32;16.25;15.75;12.00
55304;PMS7003;65692;51.378;19.824;2022-12-07T19:41:05;13.00;12.00;9.75
55304;PMS7003;65692;51.378;19.824;2022-12-07T19:43:32;12.00;10.50;9.50
55304;PMS7003;65692;51.378;19.824;2022-12-07T19:46:03;21.00;15.00;12.00
55304;PMS7003;65692;51.378;19.824;2022-12-07T19:48:29;15.25;12.00;9.00
55304;PMS7003;65692;51.378;19.824;2022-12-07T19:51:00;21.00;12.50;9.75
55304;PMS7003;65692;51.378;19.824;2022-12-07T19:53:27;10.00;10.00;9.50
55304;PMS7003;65692;51.378;19.824;2022-12-07T19:55:56;15.00;10.00;9.00
55304;PMS7003;65692;51.378;19.824;2022-12-07T19:58:23;29.67;13.00;10.00
55304;PMS7003;65692;51.378;19.824;2022-12-07T20:00:49;19.00;14.50;10.25
55304;PMS7003;65692;51.378;19.824;2022-12-07T20:03:16;17.00;12.75;10.00
55304;PMS7003;65692;51.378;19.824;2022-12-07T20:05:43;11.50;11.50;9.00
55304;PMS7003;65692;51.378;19.824;2022-12-07T20:08:09;12.33;10.00;9.00
55304;PMS7003;65692;51.378;19.824;2022-12-07T20:10:39;18.00;12.75;9.50
55304;PMS7003;65692;51.378;19.824;2022-12-07T20:13:07;12.50;9.50;7.00
55304;PMS7003;65692;51.378;19.824;2022-12-07T20:15:52;14.50;12.00;9.00
55304;PMS7003;65692;51.378;19.824;2022-12-07T20:18:39;15.00;13.00;9.50
55304;PMS7003;65692;51.378;19.824;2022-12-07T20:21:05;12.75;10.25;9.00
55304;PMS7003;65692;51.378;19.824;2022-12-07T20:23:32;14.25;9.00;7.50
55304;PMS7003;65692;51.378;19.824;2022-12-07T20:26:05;11.50;9.50;8.00
55304;PMS7003;65692;51.378;19.824;2022-12-07T20:28:32;16.25;11.00;9.00
55304;PMS7003;65692;51.378;19.824;2022-12-07T20:30:59;15.75;12.25;10.00
55304;PMS7003;65692;51.378;19.824;2022-12-07T20:33:25;20.25;15.00;11.00
55304;PMS7003;65692;51.378;19.824;2022-12-07T20:35:57;18.25;15.25;11.50
55304;PMS7003;65692;51.378;19.824;2022-12-07T20:38:23;22.00;18.00;13.00
55304;PMS7003;65692;51.378;19.824;2022-12-07T20:40:51;23.50;16.00;12.00
55304;PMS7003;65692;51.378;19.824;2022-12-07T20:43:17;23.50;16.00;12.00
55304;PMS7003;65692;51.378;19.824;2022-12-07T20:45:44;23.25;18.75;13.00
55304;PMS7003;65692;51.378;19.824;2022-12-07T20:48:11;24.25;18.50;14.00
55304;PMS7003;65692;51.378;19.824;2022-12-07T20:50:38;21.75;18.50;13.25
55304;PMS7003;65692;51.378;19.824;2022-12-07T20:53:07;30.00;18.75;15.75
55304;PMS7003;65692;51.378;19.824;2022-12-07T20:55:34;22.25;20.25;15.00
55304;PMS7003;65692;51.378;19.824;2022-12-07T20:58:01;31.75;22.00;18.00
55304;PMS7003;65692;51.378;19.824;2022-12-07T21:00:27;31.00;27.25;19.00